sensor_id;sensor_type;location;lat;lon;timestamp;pressure;altitude;pressure_sealevel;temperature;humidity
63090;BME280;49174;43.198;27.824;2022-09-09T00:00:46;101860.78;;;16.14;80.71
63090;BME280;49174;43.198;27.824;2022-09-09T00:03:24;101855.53;;;16.12;80.95
63090;BME280;49174;43.198;27.824;2022-09-09T00:06:21;101860.53;;;16.08;81.00
63090;BME280;49174;43.198;27.824;2022-09-09T00:09:10;101859.91;;;16.06;80.17
63090;BME280;49174;43.198;27.824;2022-09-09T00:11:51;101847.78;;;16.02;79.39
63090;BME280;49174;43.198;27.824;2022-09-09T00:17:08;101846.91;;;15.95;79.73
63090;BME280;49174;43.198;27.824;2022-09-09T00:19:49;101830.34;;;15.90;80.93
63090;BME280;49174;43.198;27.824;2022-09-09T00:22:29;101845.59;;;15.84;81.05
63090;BME280;49174;43.198;27.824;2022-09-09T00:25:11;101842.66;;;15.79;81.47
63090;BME280;49174;43.198;27.824;2022-09-09T00:27:46;101840.16;;;15.78;82.26
63090;BME280;49174;43.198;27.824;2022-09-09T00:32:38;101835.53;;;15.72;82.20
63090;BME280;49174;43.198;27.824;2022-09-09T00:35:16;101839.28;;;15.71;82.96
63090;BME280;49174;43.198;27.824;2022-09-09T00:37:44;101847.66;;;15.69;83.59
63090;BME280;49174;43.198;27.824;2022-09-09T00:43:49;101842.38;;;15.61;84.14
63090;BME280;49174;43.198;27.824;2022-09-09T00:55:08;101812.63;;;15.53;84.22
63090;BME280;49174;43.198;27.824;2022-09-09T00:57:37;101818.25;;;15.51;84.56
63090;BME280;49174;43.198;27.824;2022-09-09T01:11:25;101820.53;;;15.41;83.46
63090;BME280;49174;43.198;27.824;2022-09-09T01:14:10;101821.56;;;15.40;84.26
63090;BME280;49174;43.198;27.824;2022-09-09T01:16:38;101824.03;;;15.35;84.51
63090;BME280;49174;43.198;27.824;2022-09-09T01:19:09;101835.13;;;15.33;84.45
63090;BME280;49174;43.198;27.824;2022-09-09T01:21:45;101839.94;;;15.31;83.81
63090;BME280;49174;43.198;27.824;2022-09-09T01:24:15;101832.81;;;15.30;84.04
63090;BME280;49174;43.198;27.824;2022-09-09T01:26:45;101830.94;;;15.31;84.29
63090;BME280;49174;43.198;27.824;2022-09-09T01:29:13;101833.66;;;15.31;83.14
63090;BME280;49174;43.198;27.824;2022-09-09T01:32:02;101826.16;;;15.33;83.44
63090;BME280;49174;43.198;27.824;2022-09-09T01:34:31;101836.19;;;15.32;82.87
63090;BME280;49174;43.198;27.824;2022-09-09T01:37:10;101831.34;;;15.28;82.86
63090;BME280;49174;43.198;27.824;2022-09-09T01:39:39;101829.44;;;15.22;82.99
63090;BME280;49174;43.198;27.824;2022-09-09T01:42:08;101831.50;;;15.19;83.44
63090;BME280;49174;43.198;27.824;2022-09-09T01:44:35;101829.38;;;15.15;82.60
63090;BME280;49174;43.198;27.824;2022-09-09T01:47:03;101831.09;;;15.16;83.39
63090;BME280;49174;43.198;27.824;2022-09-09T01:49:28;101826.88;;;15.13;83.54
63090;BME280;49174;43.198;27.824;2022-09-09T01:51:55;101825.19;;;15.12;83.29
63090;BME280;49174;43.198;27.824;2022-09-09T01:54:23;101830.63;;;15.12;83.56
63090;BME280;49174;43.198;27.824;2022-09-09T01:59:40;101813.88;;;15.09;82.95
63090;BME280;49174;43.198;27.824;2022-09-09T02:04:49;101830.75;;;14.97;82.96
63090;BME280;49174;43.198;27.824;2022-09-09T02:10:21;101835.75;;;14.94;83.20
63090;BME280;49174;43.198;27.824;2022-09-09T02:13:03;101838.00;;;14.90;83.13
63090;BME280;49174;43.198;27.824;2022-09-09T02:18:08;101827.09;;;14.84;83.67
63090;BME280;49174;43.198;27.824;2022-09-09T02:20:38;101830.22;;;14.81;83.33
63090;BME280;49174;43.198;27.824;2022-09-09T02:23:05;101831.88;;;14.82;83.46
63090;BME280;49174;43.198;27.824;2022-09-09T02:25:35;101824.13;;;14.79;83.95
63090;BME280;49174;43.198;27.824;2022-09-09T02:28:05;101821.63;;;14.77;83.82
63090;BME280;49174;43.198;27.824;2022-09-09T02:30:33;101828.94;;;14.77;84.07
63090;BME280;49174;43.198;27.824;2022-09-09T02:33:01;101828.47;;;14.73;84.44
63090;BME280;49174;43.198;27.824;2022-09-09T02:35:30;101819.72;;;14.71;84.08
63090;BME280;49174;43.198;27.824;2022-09-09T02:38:01;101831.16;;;14.66;83.73
63090;BME280;49174;43.198;27.824;2022-09-09T02:40:27;101826.13;;;14.63;84.42
63090;BME280;49174;43.198;27.824;2022-09-09T02:42:54;101829.88;;;14.62;85.15
63090;BME280;49174;43.198;27.824;2022-09-09T02:45:23;101821.28;;;14.59;85.19
63090;BME280;49174;43.198;27.824;2022-09-09T02:50:59;101830.66;;;14.56;86.16
63090;BME280;49174;43.198;27.824;2022-09-09T02:53:41;101829.00;;;14.55;86.79
63090;BME280;49174;43.198;27.824;2022-09-09T02:56:14;101833.59;;;14.55;87.17
63090;BME280;49174;43.198;27.824;2022-09-09T02:58:41;101826.66;;;14.52;86.15
63090;BME280;49174;43.198;27.824;2022-09-09T03:01:07;101823.94;;;14.52;86.36
63090;BME280;49174;43.198;27.824;2022-09-09T03:03:34;101827.50;;;14.52;86.59
63090;BME280;49174;43.198;27.824;2022-09-09T03:06:00;101823.94;;;14.52;86.56
63090;BME280;49174;43.198;27.824;2022-09-09T03:08:25;101832.09;;;14.52;86.82
63090;BME280;49174;43.198;27.824;2022-09-09T03:10:54;101829.75;;;14.49;86.84
63090;BME280;49174;43.198;27.824;2022-09-09T03:13:20;101827.03;;;14.49;86.85
63090;BME280;49174;43.198;27.824;2022-09-09T03:15:45;101828.88;;;14.48;86.64
63090;BME280;49174;43.198;27.824;2022-09-09T03:18:13;101839.75;;;14.48;86.57
63090;BME280;49174;43.198;27.824;2022-09-09T03:20:39;101835.19;;;14.49;85.87
63090;BME280;49174;43.198;27.824;2022-09-09T03:23:04;101837.25;;;14.47;86.00
63090;BME280;49174;43.198;27.824;2022-09-09T03:25:30;101834.72;;;14.45;85.76
63090;BME280;49174;43.198;27.824;2022-09-09T03:27:55;101830.50;;;14.43;85.70
63090;BME280;49174;43.198;27.824;2022-09-09T03:30:26;101831.94;;;14.39;84.80
63090;BME280;49174;43.198;27.824;2022-09-09T03:32:52;101833.19;;;14.36;85.59
63090;BME280;49174;43.198;27.824;2022-09-09T03:35:18;101833.56;;;14.33;85.86
63090;BME280;49174;43.198;27.824;2022-09-09T03:37:44;101831.03;;;14.31;86.18
63090;BME280;49174;43.198;27.824;2022-09-09T03:40:10;101835.44;;;14.33;86.20
63090;BME280;49174;43.198;27.824;2022-09-09T03:42:36;101832.09;;;14.30;86.00
63090;BME280;49174;43.198;27.824;2022-09-09T03:45:04;101827.50;;;14.31;86.58
63090;BME280;49174;43.198;27.824;2022-09-09T03:47:30;101833.75;;;14.31;86.27
63090;BME280;49174;43.198;27.824;2022-09-09T03:49:55;101837.50;;;14.30;86.49
63090;BME280;49174;43.198;27.824;2022-09-09T03:52:21;101841.28;;;14.29;86.61
63090;BME280;49174;43.198;27.824;2022-09-09T03:54:50;101827.50;;;14.31;86.42
63090;BME280;49174;43.198;27.824;2022-09-09T03:57:16;101822.06;;;14.31;86.68
63090;BME280;49174;43.198;27.824;2022-09-09T03:59:43;101823.09;;;14.30;86.90
63090;BME280;49174;43.198;27.824;2022-09-09T04:02:08;101823.75;;;14.32;87.44
63090;BME280;49174;43.198;27.824;2022-09-09T04:04:34;101828.31;;;14.31;87.40
63090;BME280;49174;43.198;27.824;2022-09-09T04:07:00;101826.66;;;14.30;87.69
63090;BME280;49174;43.198;27.824;2022-09-09T04:09:26;101832.25;;;14.29;87.73
63090;BME280;49174;43.198;27.824;2022-09-09T04:11:52;101836.47;;;14.31;87.50
63090;BME280;49174;43.198;27.824;2022-09-09T04:14:19;101833.34;;;14.35;87.59
63090;BME280;49174;43.198;27.824;2022-09-09T04:16:45;101834.22;;;14.35;88.33
63090;BME280;49174;43.198;27.824;2022-09-09T04:19:12;101835.72;;;14.38;88.46
63090;BME280;49174;43.198;27.824;2022-09-09T04:21:41;101839.69;;;14.42;88.38
63090;BME280;49174;43.198;27.824;2022-09-09T04:24:08;101835.75;;;14.44;88.25
63090;BME280;49174;43.198;27.824;2022-09-09T04:26:34;101835.38;;;14.47;88.89
63090;BME280;49174;43.198;27.824;2022-09-09T04:29:00;101836.50;;;14.53;88.82
63090;BME280;49174;43.198;27.824;2022-09-09T04:31:26;101842.16;;;14.58;89.22
63090;BME280;49174;43.198;27.824;2022-09-09T04:33:52;101851.19;;;14.65;89.69
63090;BME280;49174;43.198;27.824;2022-09-09T04:36:18;101845.84;;;14.72;90.05
63090;BME280;49174;43.198;27.824;2022-09-09T04:38:47;101843.81;;;14.81;90.59
63090;BME280;49174;43.198;27.824;2022-09-09T04:41:14;101842.59;;;14.90;91.30
63090;BME280;49174;43.198;27.824;2022-09-09T04:43:40;101839.94;;;14.96;92.02
63090;BME280;49174;43.198;27.824;2022-09-09T04:46:06;101836.69;;;15.08;92.56
63090;BME280;49174;43.198;27.824;2022-09-09T05:01:13;101838.78;;;16.22;92.65
63090;BME280;49174;43.198;27.824;2022-09-09T05:03:40;101842.97;;;16.31;92.42
63090;BME280;49174;43.198;27.824;2022-09-09T05:06:10;101840.25;;;16.38;93.30
63090;BME280;49174;43.198;27.824;2022-09-09T05:08:37;101843.84;;;16.45;92.37
63090;BME280;49174;43.198;27.824;2022-09-09T05:11:12;101833.97;;;16.50;93.43
63090;BME280;49174;43.198;27.824;2022-09-09T05:13:37;101837.34;;;16.59;92.76
63090;BME280;49174;43.198;27.824;2022-09-09T05:16:03;101842.56;;;16.67;93.86
63090;BME280;49174;43.198;27.824;2022-09-09T05:18:29;101843.19;;;16.76;93.73
63090;BME280;49174;43.198;27.824;2022-09-09T05:21:00;101833.56;;;16.87;93.30
63090;BME280;49174;43.198;27.824;2022-09-09T05:23:25;101835.84;;;16.96;92.15
63090;BME280;49174;43.198;27.824;2022-09-09T05:37:59;101814.44;;;18.03;89.57
63090;BME280;49174;43.198;27.824;2022-09-09T05:40:24;101817.53;;;18.14;89.73
63090;BME280;49174;43.198;27.824;2022-09-09T05:42:50;101806.94;;;18.24;90.26
63090;BME280;49174;43.198;27.824;2022-09-09T05:45:15;101811.09;;;18.33;90.23
63090;BME280;49174;43.198;27.824;2022-09-09T05:47:41;101808.66;;;18.43;90.14
63090;BME280;49174;43.198;27.824;2022-09-09T05:50:07;101806.28;;;18.53;90.57
63090;BME280;49174;43.198;27.824;2022-09-09T05:52:32;101800.63;;;18.73;91.04
63090;BME280;49174;43.198;27.824;2022-09-09T05:54:58;101803.88;;;18.89;90.80
63090;BME280;49174;43.198;27.824;2022-09-09T05:57:24;101805.84;;;19.00;90.15
63090;BME280;49174;43.198;27.824;2022-09-09T05:59:50;101810.69;;;19.16;90.74
63090;BME280;49174;43.198;27.824;2022-09-09T06:02:16;101810.25;;;19.38;88.68
63090;BME280;49174;43.198;27.824;2022-09-09T06:04:41;101806.78;;;19.61;87.71
63090;BME280;49174;43.198;27.824;2022-09-09T06:07:07;101804.03;;;19.79;85.70
63090;BME280;49174;43.198;27.824;2022-09-09T06:09:33;101799.81;;;19.95;86.20
63090;BME280;49174;43.198;27.824;2022-09-09T06:11:58;101805.81;;;20.16;86.85
63090;BME280;49174;43.198;27.824;2022-09-09T06:14:24;101796.66;;;20.34;86.90
63090;BME280;49174;43.198;27.824;2022-09-09T06:16:51;101798.97;;;20.48;86.18
63090;BME280;49174;43.198;27.824;2022-09-09T06:19:17;101799.47;;;20.69;87.45
63090;BME280;49174;43.198;27.824;2022-09-09T06:21:42;101806.38;;;20.83;85.73
63090;BME280;49174;43.198;27.824;2022-09-09T06:24:10;101803.38;;;20.96;83.91
63090;BME280;49174;43.198;27.824;2022-09-09T06:26:39;101802.66;;;21.13;83.50
63090;BME280;49174;43.198;27.824;2022-09-09T06:29:08;101806.56;;;21.29;82.07
63090;BME280;49174;43.198;27.824;2022-09-09T06:31:35;101808.31;;;21.47;81.75
63090;BME280;49174;43.198;27.824;2022-09-09T06:34:04;101803.69;;;21.64;81.25
63090;BME280;49174;43.198;27.824;2022-09-09T06:36:32;101800.50;;;21.84;75.91
63090;BME280;49174;43.198;27.824;2022-09-09T06:38:58;101806.22;;;22.11;73.07
63090;BME280;49174;43.198;27.824;2022-09-09T06:41:26;101823.16;;;22.37;71.52
63090;BME280;49174;43.198;27.824;2022-09-09T06:43:52;101825.69;;;22.55;69.56
63090;BME280;49174;43.198;27.824;2022-09-09T06:46:20;101819.34;;;22.71;67.76
63090;BME280;49174;43.198;27.824;2022-09-09T06:48:49;101817.97;;;22.91;65.63
63090;BME280;49174;43.198;27.824;2022-09-09T06:51:20;101822.13;;;23.10;64.96
63090;BME280;49174;43.198;27.824;2022-09-09T06:53:55;101822.91;;;23.28;63.71
63090;BME280;49174;43.198;27.824;2022-09-09T06:58:57;101831.91;;;23.67;61.66
63090;BME280;49174;43.198;27.824;2022-09-09T07:01:28;101812.03;;;23.87;59.96
63090;BME280;49174;43.198;27.824;2022-09-09T07:03:57;101810.56;;;24.06;58.91
63090;BME280;49174;43.198;27.824;2022-09-09T07:06:29;101812.94;;;24.25;56.69
63090;BME280;49174;43.198;27.824;2022-09-09T07:09:00;101815.34;;;24.43;55.27
63090;BME280;49174;43.198;27.824;2022-09-09T07:11:28;101822.09;;;24.63;56.69
63090;BME280;49174;43.198;27.824;2022-09-09T07:13:54;101818.31;;;24.79;54.96
63090;BME280;49174;43.198;27.824;2022-09-09T07:16:21;101819.81;;;24.92;55.74
63090;BME280;49174;43.198;27.824;2022-09-09T07:18:50;101816.81;;;25.04;55.05
63090;BME280;49174;43.198;27.824;2022-09-09T07:21:16;101818.56;;;25.15;55.11
63090;BME280;49174;43.198;27.824;2022-09-09T07:23:43;101820.00;;;25.23;54.15
63090;BME280;49174;43.198;27.824;2022-09-09T07:26:19;101824.75;;;25.37;55.56
63090;BME280;49174;43.198;27.824;2022-09-09T07:28:45;101819.53;;;25.51;53.80
63090;BME280;49174;43.198;27.824;2022-09-09T07:33:42;101814.09;;;25.72;52.40
63090;BME280;49174;43.198;27.824;2022-09-09T07:36:14;101822.69;;;25.80;53.43
63090;BME280;49174;43.198;27.824;2022-09-09T07:38:45;101824.94;;;25.83;54.52
63090;BME280;49174;43.198;27.824;2022-09-09T07:41:20;101824.38;;;25.92;53.09
63090;BME280;49174;43.198;27.824;2022-09-09T07:43:47;101832.69;;;26.02;53.95
63090;BME280;49174;43.198;27.824;2022-09-09T07:46:14;101816.66;;;26.09;52.70
63090;BME280;49174;43.198;27.824;2022-09-09T07:48:49;101815.84;;;26.19;52.41
63090;BME280;49174;43.198;27.824;2022-09-09T07:51:23;101817.78;;;26.28;53.25
63090;BME280;49174;43.198;27.824;2022-09-09T07:53:55;101827.72;;;26.35;52.51
63090;BME280;49174;43.198;27.824;2022-09-09T07:56:23;101819.44;;;26.40;51.00
63090;BME280;49174;43.198;27.824;2022-09-09T07:58:50;101820.25;;;26.45;52.03
63090;BME280;49174;43.198;27.824;2022-09-09T08:01:26;101814.47;;;26.52;50.41
63090;BME280;49174;43.198;27.824;2022-09-09T08:03:57;101814.19;;;26.59;50.24
63090;BME280;49174;43.198;27.824;2022-09-09T08:06:32;101807.81;;;26.63;50.13
63090;BME280;49174;43.198;27.824;2022-09-09T08:08:58;101812.25;;;26.69;51.31
63090;BME280;49174;43.198;27.824;2022-09-09T08:11:26;101806.72;;;26.74;49.23
63090;BME280;49174;43.198;27.824;2022-09-09T08:13:52;101809.16;;;26.81;50.39
63090;BME280;49174;43.198;27.824;2022-09-09T08:16:20;101793.63;;;26.90;49.82
63090;BME280;49174;43.198;27.824;2022-09-09T08:18:50;101797.75;;;27.03;49.32
63090;BME280;49174;43.198;27.824;2022-09-09T08:21:27;101784.72;;;27.09;48.94
63090;BME280;49174;43.198;27.824;2022-09-09T08:23:54;101786.09;;;27.11;49.11
63090;BME280;49174;43.198;27.824;2022-09-09T08:26:21;101783.84;;;27.13;49.64
63090;BME280;49174;43.198;27.824;2022-09-09T08:28:50;101783.88;;;27.18;49.38
63090;BME280;49174;43.198;27.824;2022-09-09T08:31:21;101769.44;;;27.22;49.63
63090;BME280;49174;43.198;27.824;2022-09-09T08:33:47;101761.41;;;27.25;49.85
63090;BME280;49174;43.198;27.824;2022-09-09T08:36:15;101756.13;;;27.29;50.55
63090;BME280;49174;43.198;27.824;2022-09-09T08:38:42;101762.72;;;27.33;49.58
63090;BME280;49174;43.198;27.824;2022-09-09T08:41:23;101757.72;;;27.40;49.81
63090;BME280;49174;43.198;27.824;2022-09-09T08:44:12;101760.47;;;27.45;48.73
63090;BME280;49174;43.198;27.824;2022-09-09T08:53:01;101758.53;;;27.46;47.92
63090;BME280;49174;43.198;27.824;2022-09-09T08:57:53;101751.56;;;27.53;47.17
63090;BME280;49174;43.198;27.824;2022-09-09T09:00:20;101757.66;;;27.55;47.28
63090;BME280;49174;43.198;27.824;2022-09-09T09:03:27;101750.63;;;27.63;48.20
63090;BME280;49174;43.198;27.824;2022-09-09T09:10:56;101751.84;;;27.91;48.24
63090;BME280;49174;43.198;27.824;2022-09-09T09:13:38;101747.88;;;28.02;47.72
63090;BME280;49174;43.198;27.824;2022-09-09T09:16:23;101748.34;;;28.15;46.66
63090;BME280;49174;43.198;27.824;2022-09-09T09:18:52;101751.59;;;28.22;47.38
63090;BME280;49174;43.198;27.824;2022-09-09T09:21:44;101749.81;;;28.36;46.26
63090;BME280;49174;43.198;27.824;2022-09-09T09:24:27;101748.03;;;28.50;46.36
63090;BME280;49174;43.198;27.824;2022-09-09T09:27:00;101750.03;;;28.69;44.46
63090;BME280;49174;43.198;27.824;2022-09-09T09:29:29;101765.41;;;28.85;43.54
63090;BME280;49174;43.198;27.824;2022-09-09T09:31:56;101769.13;;;29.00;43.89
63090;BME280;49174;43.198;27.824;2022-09-09T09:34:26;101758.13;;;29.13;44.48
63090;BME280;49174;43.198;27.824;2022-09-09T09:36:54;101762.44;;;29.25;44.91
63090;BME280;49174;43.198;27.824;2022-09-09T09:39:31;101760.06;;;29.37;43.94
63090;BME280;49174;43.198;27.824;2022-09-09T09:42:14;101770.72;;;29.49;43.57
63090;BME280;49174;43.198;27.824;2022-09-09T09:44:41;101776.72;;;29.56;42.66
63090;BME280;49174;43.198;27.824;2022-09-09T09:47:16;101775.50;;;29.67;42.79
63090;BME280;49174;43.198;27.824;2022-09-09T09:49:56;101754.50;;;29.75;41.53
63090;BME280;49174;43.198;27.824;2022-09-09T09:52:29;101745.88;;;29.76;42.45
63090;BME280;49174;43.198;27.824;2022-09-09T09:54:56;101743.63;;;29.78;42.44
63090;BME280;49174;43.198;27.824;2022-09-09T09:57:27;101735.84;;;29.75;41.73
63090;BME280;49174;43.198;27.824;2022-09-09T10:00:22;101731.75;;;29.73;40.98
63090;BME280;49174;43.198;27.824;2022-09-09T10:02:47;101746.31;;;29.83;41.69
63090;BME280;49174;43.198;27.824;2022-09-09T10:05:17;101742.75;;;29.97;40.53
63090;BME280;49174;43.198;27.824;2022-09-09T10:07:44;101743.81;;;30.01;40.51
63090;BME280;49174;43.198;27.824;2022-09-09T10:10:23;101737.72;;;29.99;39.32
63090;BME280;49174;43.198;27.824;2022-09-09T10:13:25;101747.00;;;30.08;40.87
63090;BME280;49174;43.198;27.824;2022-09-09T10:19:00;101738.44;;;30.23;40.47
63090;BME280;49174;43.198;27.824;2022-09-09T10:22:26;101732.97;;;30.32;41.28
63090;BME280;49174;43.198;27.824;2022-09-09T10:32:49;101730.13;;;30.18;40.37
63090;BME280;49174;43.198;27.824;2022-09-09T10:35:29;101731.19;;;30.22;40.88
63090;BME280;49174;43.198;27.824;2022-09-09T10:38:14;101731.19;;;30.22;40.81
63090;BME280;49174;43.198;27.824;2022-09-09T10:52:03;101726.00;;;30.16;40.51
63090;BME280;49174;43.198;27.824;2022-09-09T10:59:50;101733.13;;;30.55;40.31
63090;BME280;49174;43.198;27.824;2022-09-09T11:02:29;101730.41;;;30.49;39.16
63090;BME280;49174;43.198;27.824;2022-09-09T11:07:43;101720.81;;;30.42;39.80
63090;BME280;49174;43.198;27.824;2022-09-09T11:12:49;101726.47;;;30.37;40.43
63090;BME280;49174;43.198;27.824;2022-09-09T11:15:43;101725.16;;;30.34;41.27
63090;BME280;49174;43.198;27.824;2022-09-09T11:18:18;101732.59;;;30.20;42.49
63090;BME280;49174;43.198;27.824;2022-09-09T11:20:46;101728.41;;;30.22;41.75
63090;BME280;49174;43.198;27.824;2022-09-09T11:23:21;101729.09;;;30.14;42.63
63090;BME280;49174;43.198;27.824;2022-09-09T11:25:52;101723.63;;;30.09;41.99
63090;BME280;49174;43.198;27.824;2022-09-09T11:28:32;101719.59;;;30.01;42.83
63090;BME280;49174;43.198;27.824;2022-09-09T11:31:45;101713.56;;;29.94;42.45
63090;BME280;49174;43.198;27.824;2022-09-09T11:40:17;101708.28;;;29.41;43.30
63090;BME280;49174;43.198;27.824;2022-09-09T11:42:45;101714.06;;;29.26;43.74
63090;BME280;49174;43.198;27.824;2022-09-09T11:45:22;101720.16;;;29.09;44.61
63090;BME280;49174;43.198;27.824;2022-09-09T11:47:54;101724.38;;;29.01;45.25
63090;BME280;49174;43.198;27.824;2022-09-09T11:52:47;101712.78;;;28.94;46.05
63090;BME280;49174;43.198;27.824;2022-09-09T11:55:30;101704.84;;;28.87;46.62
63090;BME280;49174;43.198;27.824;2022-09-09T11:58:02;101708.16;;;28.89;46.05
63090;BME280;49174;43.198;27.824;2022-09-09T12:02:58;101711.91;;;28.74;47.57
63090;BME280;49174;43.198;27.824;2022-09-09T12:05:35;101709.50;;;28.68;48.62
63090;BME280;49174;43.198;27.824;2022-09-09T12:08:03;101700.03;;;28.69;46.80
63090;BME280;49174;43.198;27.824;2022-09-09T12:10:33;101700.53;;;28.76;47.28
63090;BME280;49174;43.198;27.824;2022-09-09T12:13:16;101693.25;;;28.80;45.80
63090;BME280;49174;43.198;27.824;2022-09-09T12:16:26;101692.47;;;28.74;46.21
63090;BME280;49174;43.198;27.824;2022-09-09T12:19:03;101688.88;;;28.74;46.80
63090;BME280;49174;43.198;27.824;2022-09-09T12:21:50;101682.72;;;28.77;46.55
63090;BME280;49174;43.198;27.824;2022-09-09T12:27:02;101682.03;;;28.66;46.49
63090;BME280;49174;43.198;27.824;2022-09-09T12:29:47;101674.28;;;28.63;47.65
63090;BME280;49174;43.198;27.824;2022-09-09T12:32:23;101680.22;;;28.57;46.78
63090;BME280;49174;43.198;27.824;2022-09-09T12:37:45;101685.16;;;28.60;45.98
63090;BME280;49174;43.198;27.824;2022-09-09T12:40:27;101689.09;;;28.59;43.98
63090;BME280;49174;43.198;27.824;2022-09-09T12:42:53;101681.84;;;28.58;45.63
63090;BME280;49174;43.198;27.824;2022-09-09T12:45:22;101680.50;;;28.55;45.44
63090;BME280;49174;43.198;27.824;2022-09-09T12:48:03;101676.63;;;28.75;44.08
63090;BME280;49174;43.198;27.824;2022-09-09T12:50:43;101672.75;;;28.76;45.81
63090;BME280;49174;43.198;27.824;2022-09-09T12:53:37;101675.59;;;28.71;46.17
63090;BME280;49174;43.198;27.824;2022-09-09T12:56:09;101680.66;;;28.40;46.38
63090;BME280;49174;43.198;27.824;2022-09-09T12:58:38;101676.69;;;27.58;48.33
63090;BME280;49174;43.198;27.824;2022-09-09T13:01:17;101680.38;;;27.44;47.97
63090;BME280;49174;43.198;27.824;2022-09-09T13:03:43;101665.63;;;27.53;48.86
63090;BME280;49174;43.198;27.824;2022-09-09T13:06:13;101655.41;;;27.49;48.39
63090;BME280;49174;43.198;27.824;2022-09-09T13:08:44;101663.84;;;27.33;50.28
63090;BME280;49174;43.198;27.824;2022-09-09T13:11:14;101663.06;;;27.23;50.56
63090;BME280;49174;43.198;27.824;2022-09-09T13:13:43;101660.97;;;26.94;50.60
63090;BME280;49174;43.198;27.824;2022-09-09T13:16:25;101668.91;;;27.16;50.17
63090;BME280;49174;43.198;27.824;2022-09-09T13:18:52;101659.19;;;27.18;50.73
63090;BME280;49174;43.198;27.824;2022-09-09T13:21:18;101662.88;;;27.04;51.23
63090;BME280;49174;43.198;27.824;2022-09-09T13:23:49;101669.19;;;27.09;51.89
63090;BME280;49174;43.198;27.824;2022-09-09T13:26:26;101663.06;;;27.23;52.00
63090;BME280;49174;43.198;27.824;2022-09-09T13:28:53;101663.88;;;27.23;50.83
63090;BME280;49174;43.198;27.824;2022-09-09T13:31:30;101651.72;;;27.14;52.01
63090;BME280;49174;43.198;27.824;2022-09-09T13:33:58;101650.75;;;26.89;51.80
63090;BME280;49174;43.198;27.824;2022-09-09T13:36:31;101643.97;;;26.61;51.84
63090;BME280;49174;43.198;27.824;2022-09-09T13:38:58;101647.69;;;26.05;55.23
63090;BME280;49174;43.198;27.824;2022-09-09T13:41:34;101649.06;;;25.82;54.49
63090;BME280;49174;43.198;27.824;2022-09-09T13:44:01;101643.03;;;25.85;54.62
63090;BME280;49174;43.198;27.824;2022-09-09T13:46:37;101638.00;;;25.82;53.64
63090;BME280;49174;43.198;27.824;2022-09-09T13:51:41;101642.69;;;26.18;54.82
63090;BME280;49174;43.198;27.824;2022-09-09T13:54:11;101642.47;;;25.94;54.56
63090;BME280;49174;43.198;27.824;2022-09-09T13:56:38;101645.50;;;25.97;54.76
63090;BME280;49174;43.198;27.824;2022-09-09T13:59:09;101639.69;;;25.89;55.22
63090;BME280;49174;43.198;27.824;2022-09-09T14:01:35;101641.63;;;25.78;55.63
63090;BME280;49174;43.198;27.824;2022-09-09T14:04:03;101642.16;;;25.54;55.50
63090;BME280;49174;43.198;27.824;2022-09-09T14:06:30;101643.53;;;25.52;58.18
63090;BME280;49174;43.198;27.824;2022-09-09T14:08:58;101631.94;;;25.50;56.50
63090;BME280;49174;43.198;27.824;2022-09-09T14:11:24;101628.34;;;25.49;56.12
63090;BME280;49174;43.198;27.824;2022-09-09T14:13:50;101620.88;;;25.65;54.51
63090;BME280;49174;43.198;27.824;2022-09-09T14:16:18;101613.72;;;25.74;57.16
63090;BME280;49174;43.198;27.824;2022-09-09T14:18:47;101621.44;;;25.77;60.03
63090;BME280;49174;43.198;27.824;2022-09-09T14:21:13;101609.28;;;25.89;60.52
63090;BME280;49174;43.198;27.824;2022-09-09T14:23:40;101610.63;;;26.06;59.69
63090;BME280;49174;43.198;27.824;2022-09-09T14:26:06;101615.66;;;25.89;60.44
63090;BME280;49174;43.198;27.824;2022-09-09T14:28:32;101617.81;;;25.77;59.18
63090;BME280;49174;43.198;27.824;2022-09-09T14:31:03;101609.81;;;25.65;59.83
63090;BME280;49174;43.198;27.824;2022-09-09T14:33:29;101613.13;;;25.52;61.00
63090;BME280;49174;43.198;27.824;2022-09-09T14:35:59;101623.38;;;25.41;62.06
63090;BME280;49174;43.198;27.824;2022-09-09T14:38:29;101622.28;;;25.47;62.44
63090;BME280;49174;43.198;27.824;2022-09-09T14:40:55;101620.31;;;25.42;62.71
63090;BME280;49174;43.198;27.824;2022-09-09T14:43:21;101625.31;;;25.56;62.12
63090;BME280;49174;43.198;27.824;2022-09-09T14:45:47;101619.25;;;25.44;63.07
63090;BME280;49174;43.198;27.824;2022-09-09T14:48:17;101623.06;;;25.37;61.51
63090;BME280;49174;43.198;27.824;2022-09-09T14:50:43;101628.31;;;25.24;62.36
63090;BME280;49174;43.198;27.824;2022-09-09T14:53:09;101625.16;;;24.84;62.78
63090;BME280;49174;43.198;27.824;2022-09-09T14:55:35;101631.75;;;24.78;65.27
63090;BME280;49174;43.198;27.824;2022-09-09T14:58:01;101627.63;;;24.75;65.48
63090;BME280;49174;43.198;27.824;2022-09-09T15:00:26;101620.13;;;24.61;66.42
63090;BME280;49174;43.198;27.824;2022-09-09T15:02:53;101615.63;;;24.44;66.88
63090;BME280;49174;43.198;27.824;2022-09-09T15:05:19;101611.22;;;24.48;67.44
63090;BME280;49174;43.198;27.824;2022-09-09T15:07:44;101608.47;;;24.53;66.70
63090;BME280;49174;43.198;27.824;2022-09-09T15:10:10;101614.25;;;24.47;66.43
63090;BME280;49174;43.198;27.824;2022-09-09T15:12:36;101613.63;;;24.40;66.65
63090;BME280;49174;43.198;27.824;2022-09-09T15:15:04;101611.09;;;24.28;67.53
63090;BME280;49174;43.198;27.824;2022-09-09T15:17:30;101604.47;;;24.24;66.83